Elizabethtown, Kentucky
Current Conditions -  °F | °C
As of 10:58 AM on Thursday 29 Jan 2015 (Local Time) from KFTK Reporting Station
Overcast Overcast  
Wind Chill: 53°   Ceiling: 3800
Heat Index: 53°   Visibility: 10mi
Dew Point: 38°   Wind: 18mph
Humidity: 58%   Direction: 200°SSW
Pressure: 29.91"   Gusts: 28mph
Location:  37.69°N, 85.86°W
Report Text: KFTK 291558Z AUTO 20016G24KT 10SM OVC038 11/04 A2991 RMK AO2 SLP134 T01140035
Loading
Personal Weather Stations






























Interactive Weather Map New forecast layout! Learn more

10-Day Weather Forecast

Advertisements
Track Severe Weather on mobile